<?xml version="1.0" encoding="UTF-8" standalone="no" ?>
<gpx xmlns="http://www.topografix.com/GPX/1/1" xmlns:xsi="http://www.w3.org/2001/XMLSchema-instance" xsi:schemaLocation="http://www.topografix.com/GPX/1/1 http://www.topografix.com/GPX/1/1/gpx.xsd" version="1.1" creator="VisuGPX - https://www.visugpx.com">
  <metadata>
    <name>Chateau de Barry (Drôme)</name>
    <desc><![CDATA[Randonnée peu difficile à partir de Vercheny]]></desc>
  </metadata>
  <trk>
    <name><![CDATA[Chateau de Barry - PD]]></name>
    <trkseg>
      <trkpt lat="44.71094" lon="5.24984">
        <ele>433</ele>
        <time>2020-08-26T18:19:03.98Z</time>
      </trkpt>
      <trkpt lat="44.71146" lon="5.24989">
        <ele>435</ele>
        <time>2020-08-26T18:19:50.95Z</time>
      </trkpt>
      <trkpt lat="44.71279" lon="5.24987">
        <ele>440</ele>
        <time>2020-08-26T18:21:53.63Z</time>
      </trkpt>
      <trkpt lat="44.71286" lon="5.24977">
        <ele>440</ele>
        <time>2020-08-26T18:22:02.89Z</time>
      </trkpt>
      <trkpt lat="44.71299" lon="5.24936">
        <ele>442</ele>
        <time>2020-08-26T18:22:34.02Z</time>
      </trkpt>
      <trkpt lat="44.71311" lon="5.24938">
        <ele>443</ele>
        <time>2020-08-26T18:22:46.03Z</time>
      </trkpt>
      <trkpt lat="44.7133" lon="5.24955">
        <ele>444</ele>
        <time>2020-08-26T18:23:06.67Z</time>
      </trkpt>
      <trkpt lat="44.71368" lon="5.24999">
        <ele>446</ele>
        <time>2020-08-26T18:23:52.77Z</time>
      </trkpt>
      <trkpt lat="44.71462" lon="5.25162">
        <ele>452</ele>
        <time>2020-08-26T18:26:11.77Z</time>
      </trkpt>
      <trkpt lat="44.71488" lon="5.25189">
        <ele>454</ele>
        <time>2020-08-26T18:26:40.97Z</time>
      </trkpt>
      <trkpt lat="44.71569" lon="5.25237">
        <ele>456</ele>
        <time>2020-08-26T18:27:51.08Z</time>
      </trkpt>
      <trkpt lat="44.71643" lon="5.25214">
        <ele>452</ele>
        <time>2020-08-26T18:28:52.71Z</time>
      </trkpt>
      <trkpt lat="44.7167" lon="5.25212">
        <ele>450</ele>
        <time>2020-08-26T18:29:15.73Z</time>
      </trkpt>
      <trkpt lat="44.71703" lon="5.25217">
        <ele>447</ele>
        <time>2020-08-26T18:29:43.79Z</time>
      </trkpt>
      <trkpt lat="44.7174" lon="5.25237">
        <ele>445</ele>
        <time>2020-08-26T18:30:15.23Z</time>
      </trkpt>
      <trkpt lat="44.71745" lon="5.25232">
        <ele>445</ele>
        <time>2020-08-26T18:30:20.01Z</time>
      </trkpt>
      <trkpt lat="44.71751" lon="5.25211">
        <ele>445</ele>
        <time>2020-08-26T18:30:33.15Z</time>
      </trkpt>
      <trkpt lat="44.71758" lon="5.25205">
        <ele>445</ele>
        <time>2020-08-26T18:30:39.52Z</time>
      </trkpt>
      <trkpt lat="44.71766" lon="5.25212">
        <ele>445</ele>
        <time>2020-08-26T18:30:47.99Z</time>
      </trkpt>
      <trkpt lat="44.71778" lon="5.2523">
        <ele>445</ele>
        <time>2020-08-26T18:31:03.73Z</time>
      </trkpt>
      <trkpt lat="44.718" lon="5.2525">
        <ele>447</ele>
        <time>2020-08-26T18:31:33.20Z</time>
      </trkpt>
      <trkpt lat="44.71803" lon="5.25275">
        <ele>448</ele>
        <time>2020-08-26T18:31:53.07Z</time>
      </trkpt>
      <trkpt lat="44.71797" lon="5.25313">
        <ele>451</ele>
        <time>2020-08-26T18:32:33.46Z</time>
      </trkpt>
      <trkpt lat="44.71801" lon="5.25343">
        <ele>454</ele>
        <time>2020-08-26T18:33:05.61Z</time>
      </trkpt>
      <trkpt lat="44.71818" lon="5.25385">
        <ele>459</ele>
        <time>2020-08-26T18:33:45.76Z</time>
      </trkpt>
      <trkpt lat="44.71825" lon="5.25389">
        <ele>460</ele>
        <time>2020-08-26T18:33:54.29Z</time>
      </trkpt>
      <trkpt lat="44.71831" lon="5.25388">
        <ele>461</ele>
        <time>2020-08-26T18:34:01.30Z</time>
      </trkpt>
      <trkpt lat="44.71836" lon="5.25379">
        <ele>462</ele>
        <time>2020-08-26T18:34:11.20Z</time>
      </trkpt>
      <trkpt lat="44.71867" lon="5.25299">
        <ele>465</ele>
        <time>2020-08-26T18:35:07.08Z</time>
      </trkpt>
      <trkpt lat="44.71887" lon="5.25274">
        <ele>464</ele>
        <time>2020-08-26T18:35:28.59Z</time>
      </trkpt>
      <trkpt lat="44.7189" lon="5.25264">
        <ele>463</ele>
        <time>2020-08-26T18:35:35.14Z</time>
      </trkpt>
      <trkpt lat="44.71888" lon="5.25237">
        <ele>462</ele>
        <time>2020-08-26T18:35:51.78Z</time>
      </trkpt>
      <trkpt lat="44.71891" lon="5.25229">
        <ele>461</ele>
        <time>2020-08-26T18:35:57.32Z</time>
      </trkpt>
      <trkpt lat="44.71899" lon="5.25217">
        <ele>460</ele>
        <time>2020-08-26T18:36:07.46Z</time>
      </trkpt>
      <trkpt lat="44.71913" lon="5.25212">
        <ele>459</ele>
        <time>2020-08-26T18:36:19.99Z</time>
      </trkpt>
      <trkpt lat="44.7192" lon="5.25218">
        <ele>458</ele>
        <time>2020-08-26T18:36:27.27Z</time>
      </trkpt>
      <trkpt lat="44.71929" lon="5.25255">
        <ele>456</ele>
        <time>2020-08-26T18:36:50.67Z</time>
      </trkpt>
      <trkpt lat="44.71944" lon="5.25266">
        <ele>454</ele>
        <time>2020-08-26T18:37:05.09Z</time>
      </trkpt>
      <trkpt lat="44.71954" lon="5.25266">
        <ele>454</ele>
        <time>2020-08-26T18:37:13.44Z</time>
      </trkpt>
      <trkpt lat="44.71965" lon="5.25277">
        <ele>453</ele>
        <time>2020-08-26T18:37:23.99Z</time>
      </trkpt>
      <trkpt lat="44.72005" lon="5.25348">
        <ele>451</ele>
        <time>2020-08-26T18:38:15.41Z</time>
      </trkpt>
      <trkpt lat="44.72036" lon="5.25368">
        <ele>453</ele>
        <time>2020-08-26T18:38:58.06Z</time>
      </trkpt>
      <trkpt lat="44.72081" lon="5.25431">
        <ele>461</ele>
        <time>2020-08-26T18:40:16.80Z</time>
      </trkpt>
      <trkpt lat="44.72197" lon="5.25496">
        <ele>472</ele>
        <time>2020-08-26T18:42:29.52Z</time>
      </trkpt>
      <trkpt lat="44.72226" lon="5.25505">
        <ele>473</ele>
        <time>2020-08-26T18:42:55.39Z</time>
      </trkpt>
      <trkpt lat="44.72249" lon="5.25498">
        <ele>473</ele>
        <time>2020-08-26T18:43:14.21Z</time>
      </trkpt>
      <trkpt lat="44.72262" lon="5.25486">
        <ele>473</ele>
        <time>2020-08-26T18:43:26.24Z</time>
      </trkpt>
      <trkpt lat="44.7227" lon="5.25482">
        <ele>473</ele>
        <time>2020-08-26T18:43:33.69Z</time>
      </trkpt>
      <trkpt lat="44.72332" lon="5.25492">
        <ele>473</ele>
        <time>2020-08-26T18:44:25.02Z</time>
      </trkpt>
      <trkpt lat="44.72348" lon="5.25491">
        <ele>473</ele>
        <time>2020-08-26T18:44:38.44Z</time>
      </trkpt>
      <trkpt lat="44.72388" lon="5.25479">
        <ele>474</ele>
        <time>2020-08-26T18:45:12.38Z</time>
      </trkpt>
      <trkpt lat="44.7241" lon="5.25478">
        <ele>474</ele>
        <time>2020-08-26T18:45:30.41Z</time>
      </trkpt>
      <trkpt lat="44.72432" lon="5.25469">
        <ele>474</ele>
        <time>2020-08-26T18:45:48.81Z</time>
      </trkpt>
      <trkpt lat="44.72483" lon="5.25471">
        <ele>473</ele>
        <time>2020-08-26T18:46:29.59Z</time>
      </trkpt>
      <trkpt lat="44.72566" lon="5.2549">
        <ele>473</ele>
        <time>2020-08-26T18:47:39.34Z</time>
      </trkpt>
      <trkpt lat="44.72576" lon="5.25478">
        <ele>473</ele>
        <time>2020-08-26T18:47:50.05Z</time>
      </trkpt>
      <trkpt lat="44.72589" lon="5.25451">
        <ele>474</ele>
        <time>2020-08-26T18:48:10.96Z</time>
      </trkpt>
      <trkpt lat="44.7262" lon="5.25408">
        <ele>475</ele>
        <time>2020-08-26T18:48:49.86Z</time>
      </trkpt>
      <trkpt lat="44.72644" lon="5.25403">
        <ele>476</ele>
        <time>2020-08-26T18:49:11.88Z</time>
      </trkpt>
      <trkpt lat="44.72654" lon="5.25386">
        <ele>477</ele>
        <time>2020-08-26T18:49:27Z</time>
      </trkpt>
      <trkpt lat="44.72666" lon="5.2542">
        <ele>478</ele>
        <time>2020-08-26T18:49:53.36Z</time>
      </trkpt>
      <trkpt lat="44.72679" lon="5.25425">
        <ele>480</ele>
        <time>2020-08-26T18:50:07.59Z</time>
      </trkpt>
      <trkpt lat="44.72712" lon="5.25424">
        <ele>482</ele>
        <time>2020-08-26T18:50:45.48Z</time>
      </trkpt>
      <trkpt lat="44.72755" lon="5.25406">
        <ele>487</ele>
        <time>2020-08-26T18:51:44.63Z</time>
      </trkpt>
      <trkpt lat="44.72796" lon="5.2536">
        <ele>493</ele>
        <time>2020-08-26T18:52:58.91Z</time>
      </trkpt>
      <trkpt lat="44.72768" lon="5.25367">
        <ele>497</ele>
        <time>2020-08-26T18:53:38.81Z</time>
      </trkpt>
      <trkpt lat="44.72752" lon="5.25364">
        <ele>499</ele>
        <time>2020-08-26T18:54:01.44Z</time>
      </trkpt>
      <trkpt lat="44.72737" lon="5.2533">
        <ele>502</ele>
        <time>2020-08-26T18:54:42.92Z</time>
      </trkpt>
      <trkpt lat="44.72711" lon="5.25287">
        <ele>508</ele>
        <time>2020-08-26T18:55:46.88Z</time>
      </trkpt>
      <trkpt lat="44.72708" lon="5.25229">
        <ele>514</ele>
        <time>2020-08-26T18:56:47.12Z</time>
      </trkpt>
      <trkpt lat="44.72715" lon="5.25192">
        <ele>517</ele>
        <time>2020-08-26T18:57:26.85Z</time>
      </trkpt>
      <trkpt lat="44.72724" lon="5.25188">
        <ele>519</ele>
        <time>2020-08-26T18:57:41.18Z</time>
      </trkpt>
      <trkpt lat="44.72731" lon="5.25194">
        <ele>520</ele>
        <time>2020-08-26T18:57:52.63Z</time>
      </trkpt>
      <trkpt lat="44.72745" lon="5.25222">
        <ele>523</ele>
        <time>2020-08-26T18:58:25.26Z</time>
      </trkpt>
      <trkpt lat="44.72797" lon="5.25243">
        <ele>529</ele>
        <time>2020-08-26T18:59:30.07Z</time>
      </trkpt>
      <trkpt lat="44.72813" lon="5.25245">
        <ele>530</ele>
        <time>2020-08-26T18:59:48.75Z</time>
      </trkpt>
      <trkpt lat="44.72827" lon="5.25241">
        <ele>531</ele>
        <time>2020-08-26T19:00:04.14Z</time>
      </trkpt>
      <trkpt lat="44.72834" lon="5.25246">
        <ele>532</ele>
        <time>2020-08-26T19:00:13.10Z</time>
      </trkpt>
      <trkpt lat="44.72852" lon="5.25274">
        <ele>534</ele>
        <time>2020-08-26T19:00:43Z</time>
      </trkpt>
      <trkpt lat="44.72893" lon="5.25293">
        <ele>538</ele>
        <time>2020-08-26T19:01:39.04Z</time>
      </trkpt>
      <trkpt lat="44.72901" lon="5.2529">
        <ele>539</ele>
        <time>2020-08-26T19:01:49.33Z</time>
      </trkpt>
      <trkpt lat="44.729" lon="5.25284">
        <ele>539</ele>
        <time>2020-08-26T19:01:55.73Z</time>
      </trkpt>
      <trkpt lat="44.72882" lon="5.25255">
        <ele>543</ele>
        <time>2020-08-26T19:02:38.62Z</time>
      </trkpt>
      <trkpt lat="44.7287" lon="5.25221">
        <ele>547</ele>
        <time>2020-08-26T19:03:24.34Z</time>
      </trkpt>
      <trkpt lat="44.72859" lon="5.25173">
        <ele>553</ele>
        <time>2020-08-26T19:04:26.13Z</time>
      </trkpt>
      <trkpt lat="44.72849" lon="5.25155">
        <ele>556</ele>
        <time>2020-08-26T19:04:55.19Z</time>
      </trkpt>
      <trkpt lat="44.72831" lon="5.251">
        <ele>563</ele>
        <time>2020-08-26T19:06:12.51Z</time>
      </trkpt>
      <trkpt lat="44.72816" lon="5.25074">
        <ele>568</ele>
        <time>2020-08-26T19:06:57.11Z</time>
      </trkpt>
      <trkpt lat="44.72813" lon="5.25062">
        <ele>569</ele>
        <time>2020-08-26T19:07:12.60Z</time>
      </trkpt>
      <trkpt lat="44.72817" lon="5.25052">
        <ele>571</ele>
        <time>2020-08-26T19:07:27.11Z</time>
      </trkpt>
      <trkpt lat="44.72831" lon="5.25058">
        <ele>573</ele>
        <time>2020-08-26T19:07:51.95Z</time>
      </trkpt>
      <trkpt lat="44.72889" lon="5.25069">
        <ele>583</ele>
        <time>2020-08-26T19:09:34.84Z</time>
      </trkpt>
      <trkpt lat="44.72928" lon="5.25083">
        <ele>590</ele>
        <time>2020-08-26T19:10:45.57Z</time>
      </trkpt>
      <trkpt lat="44.73031" lon="5.25162">
        <ele>610</ele>
        <time>2020-08-26T19:14:00.01Z</time>
      </trkpt>
      <trkpt lat="44.73122" lon="5.25251">
        <ele>626</ele>
        <time>2020-08-26T19:16:57.07Z</time>
      </trkpt>
      <trkpt lat="44.73138" lon="5.2526">
        <ele>628</ele>
        <time>2020-08-26T19:17:24.47Z</time>
      </trkpt>
      <trkpt lat="44.73203" lon="5.2527">
        <ele>639</ele>
        <time>2020-08-26T19:19:24.91Z</time>
      </trkpt>
      <trkpt lat="44.73171" lon="5.2524">
        <ele>647</ele>
        <time>2020-08-26T19:20:36.47Z</time>
      </trkpt>
      <trkpt lat="44.73159" lon="5.25222">
        <ele>650</ele>
        <time>2020-08-26T19:21:07.11Z</time>
      </trkpt>
      <trkpt lat="44.73148" lon="5.25131">
        <ele>661</ele>
        <time>2020-08-26T19:22:50.33Z</time>
      </trkpt>
      <trkpt lat="44.73107" lon="5.25036">
        <ele>671</ele>
        <time>2020-08-26T19:24:41.45Z</time>
      </trkpt>
      <trkpt lat="44.73087" lon="5.2496">
        <ele>678</ele>
        <time>2020-08-26T19:26:01.20Z</time>
      </trkpt>
      <trkpt lat="44.7308" lon="5.24925">
        <ele>681</ele>
        <time>2020-08-26T19:26:35.35Z</time>
      </trkpt>
      <trkpt lat="44.73072" lon="5.249">
        <ele>683</ele>
        <time>2020-08-26T19:27:01.29Z</time>
      </trkpt>
      <trkpt lat="44.73027" lon="5.24841">
        <ele>690</ele>
        <time>2020-08-26T19:28:05.86Z</time>
      </trkpt>
      <trkpt lat="44.72952" lon="5.24756">
        <ele>695</ele>
        <time>2020-08-26T19:29:41.46Z</time>
      </trkpt>
      <trkpt lat="44.72932" lon="5.24723">
        <ele>698</ele>
        <time>2020-08-26T19:30:29.25Z</time>
      </trkpt>
      <trkpt lat="44.72927" lon="5.24704">
        <ele>700</ele>
        <time>2020-08-26T19:30:50.87Z</time>
      </trkpt>
      <trkpt lat="44.72969" lon="5.24732">
        <ele>708</ele>
        <time>2020-08-26T19:32:26.82Z</time>
      </trkpt>
      <trkpt lat="44.73001" lon="5.24743">
        <ele>717</ele>
        <time>2020-08-26T19:33:45.47Z</time>
      </trkpt>
      <trkpt lat="44.73089" lon="5.24762">
        <ele>738</ele>
        <time>2020-08-26T19:36:45.49Z</time>
      </trkpt>
      <trkpt lat="44.73118" lon="5.24775">
        <ele>742</ele>
        <time>2020-08-26T19:37:30.03Z</time>
      </trkpt>
      <trkpt lat="44.73148" lon="5.24794">
        <ele>746</ele>
        <time>2020-08-26T19:38:07.98Z</time>
      </trkpt>
      <trkpt lat="44.73157" lon="5.24804">
        <ele>747</ele>
        <time>2020-08-26T19:38:22.01Z</time>
      </trkpt>
      <trkpt lat="44.732" lon="5.24889">
        <ele>753</ele>
        <time>2020-08-26T19:39:42.89Z</time>
      </trkpt>
      <trkpt lat="44.73302" lon="5.25014">
        <ele>764</ele>
        <time>2020-08-26T19:42:09.39Z</time>
      </trkpt>
      <trkpt lat="44.73314" lon="5.25024">
        <ele>765</ele>
        <time>2020-08-26T19:42:24.57Z</time>
      </trkpt>
      <trkpt lat="44.73326" lon="5.25055">
        <ele>767</ele>
        <time>2020-08-26T19:42:52.20Z</time>
      </trkpt>
      <trkpt lat="44.7336" lon="5.25079">
        <ele>770</ele>
        <time>2020-08-26T19:43:40.76Z</time>
      </trkpt>
      <trkpt lat="44.73387" lon="5.25084">
        <ele>774</ele>
        <time>2020-08-26T19:44:23.65Z</time>
      </trkpt>
      <trkpt lat="44.73413" lon="5.25099">
        <ele>778</ele>
        <time>2020-08-26T19:45:17.08Z</time>
      </trkpt>
      <trkpt lat="44.73429" lon="5.25102">
        <ele>781</ele>
        <time>2020-08-26T19:45:49.54Z</time>
      </trkpt>
      <trkpt lat="44.73466" lon="5.25093">
        <ele>790</ele>
        <time>2020-08-26T19:47:22.14Z</time>
      </trkpt>
      <trkpt lat="44.73489" lon="5.25082">
        <ele>797</ele>
        <time>2020-08-26T19:48:30.53Z</time>
      </trkpt>
      <trkpt lat="44.73515" lon="5.25059">
        <ele>806</ele>
        <time>2020-08-26T19:49:50.47Z</time>
      </trkpt>
      <trkpt lat="44.73535" lon="5.25051">
        <ele>811</ele>
        <time>2020-08-26T19:50:43.56Z</time>
      </trkpt>
      <trkpt lat="44.73542" lon="5.25038">
        <ele>814</ele>
        <time>2020-08-26T19:51:11.17Z</time>
      </trkpt>
      <trkpt lat="44.73543" lon="5.25017">
        <ele>818</ele>
        <time>2020-08-26T19:51:47.96Z</time>
      </trkpt>
      <trkpt lat="44.73498" lon="5.25015">
        <ele>829</ele>
        <time>2020-08-26T19:53:21.17Z</time>
      </trkpt>
      <trkpt lat="44.73466" lon="5.25002">
        <ele>835</ele>
        <time>2020-08-26T19:54:10.61Z</time>
      </trkpt>
      <trkpt lat="44.7341" lon="5.24935">
        <ele>843</ele>
        <time>2020-08-26T19:55:32.78Z</time>
      </trkpt>
      <trkpt lat="44.73387" lon="5.24903">
        <ele>844</ele>
        <time>2020-08-26T19:56:00.27Z</time>
      </trkpt>
      <trkpt lat="44.73387" lon="5.24863">
        <ele>844</ele>
        <time>2020-08-26T19:56:28.17Z</time>
      </trkpt>
      <trkpt lat="44.73396" lon="5.24774">
        <ele>850</ele>
        <time>2020-08-26T19:58:05.04Z</time>
      </trkpt>
      <trkpt lat="44.73398" lon="5.2468">
        <ele>862</ele>
        <time>2020-08-26T20:00:03.66Z</time>
      </trkpt>
      <trkpt lat="44.73393" lon="5.24656">
        <ele>865</ele>
        <time>2020-08-26T20:00:35.48Z</time>
      </trkpt>
      <trkpt lat="44.73372" lon="5.24624">
        <ele>870</ele>
        <time>2020-08-26T20:01:14.05Z</time>
      </trkpt>
      <trkpt lat="44.73366" lon="5.24606">
        <ele>871</ele>
        <time>2020-08-26T20:01:27.91Z</time>
      </trkpt>
      <trkpt lat="44.7335" lon="5.24584">
        <ele>872</ele>
        <time>2020-08-26T20:01:46.81Z</time>
      </trkpt>
      <trkpt lat="44.73336" lon="5.24541">
        <ele>871</ele>
        <time>2020-08-26T20:02:14.09Z</time>
      </trkpt>
      <trkpt lat="44.73334" lon="5.2452">
        <ele>870</ele>
        <time>2020-08-26T20:02:25.99Z</time>
      </trkpt>
      <trkpt lat="44.73337" lon="5.24496">
        <ele>869</ele>
        <time>2020-08-26T20:02:39.87Z</time>
      </trkpt>
      <trkpt lat="44.73351" lon="5.24453">
        <ele>869</ele>
        <time>2020-08-26T20:03:10.39Z</time>
      </trkpt>
      <trkpt lat="44.73354" lon="5.24436">
        <ele>869</ele>
        <time>2020-08-26T20:03:23.71Z</time>
      </trkpt>
      <trkpt lat="44.7335" lon="5.2443">
        <ele>870</ele>
        <time>2020-08-26T20:03:28.88Z</time>
      </trkpt>
      <trkpt lat="44.73344" lon="5.24423">
        <ele>871</ele>
        <time>2020-08-26T20:03:40.53Z</time>
      </trkpt>
      <trkpt lat="44.73335" lon="5.24422">
        <ele>872</ele>
        <time>2020-08-26T20:03:51.92Z</time>
      </trkpt>
      <trkpt lat="44.73331" lon="5.24456">
        <ele>876</ele>
        <time>2020-08-26T20:04:40.31Z</time>
      </trkpt>
      <trkpt lat="44.73325" lon="5.24472">
        <ele>879</ele>
        <time>2020-08-26T20:05:06.76Z</time>
      </trkpt>
      <trkpt lat="44.73318" lon="5.24479">
        <ele>881</ele>
        <time>2020-08-26T20:05:24.69Z</time>
      </trkpt>
      <trkpt lat="44.7331" lon="5.24478">
        <ele>883</ele>
        <time>2020-08-26T20:05:39.14Z</time>
      </trkpt>
      <trkpt lat="44.73305" lon="5.2445">
        <ele>888</ele>
        <time>2020-08-26T20:06:12.82Z</time>
      </trkpt>
      <trkpt lat="44.73232" lon="5.24343">
        <ele>902</ele>
        <time>2020-08-26T20:08:05.58Z</time>
      </trkpt>
      <trkpt lat="44.73229" lon="5.24356">
        <ele>903</ele>
        <time>2020-08-26T20:08:15.99Z</time>
      </trkpt>
      <trkpt lat="44.73248" lon="5.24443">
        <ele>902</ele>
        <time>2020-08-26T20:09:08.02Z</time>
      </trkpt>
      <trkpt lat="44.73249" lon="5.24466">
        <ele>902</ele>
        <time>2020-08-26T20:09:20.88Z</time>
      </trkpt>
      <trkpt lat="44.73242" lon="5.24505">
        <ele>903</ele>
        <time>2020-08-26T20:09:54.09Z</time>
      </trkpt>
      <trkpt lat="44.73234" lon="5.24516">
        <ele>904</ele>
        <time>2020-08-26T20:10:06.41Z</time>
      </trkpt>
      <trkpt lat="44.73225" lon="5.24516">
        <ele>905</ele>
        <time>2020-08-26T20:10:16.93Z</time>
      </trkpt>
      <trkpt lat="44.73183" lon="5.24448">
        <ele>912</ele>
        <time>2020-08-26T20:11:52.42Z</time>
      </trkpt>
      <trkpt lat="44.73145" lon="5.24409">
        <ele>920</ele>
        <time>2020-08-26T20:13:18.02Z</time>
      </trkpt>
      <trkpt lat="44.73108" lon="5.24381">
        <ele>928</ele>
        <time>2020-08-26T20:14:35.82Z</time>
      </trkpt>
      <trkpt lat="44.73088" lon="5.24342">
        <ele>934</ele>
        <time>2020-08-26T20:15:25.51Z</time>
      </trkpt>
      <trkpt lat="44.73081" lon="5.24335">
        <ele>935</ele>
        <time>2020-08-26T20:15:37.09Z</time>
      </trkpt>
      <trkpt lat="44.73018" lon="5.24309">
        <ele>942</ele>
        <time>2020-08-26T20:16:53.31Z</time>
      </trkpt>
      <trkpt lat="44.7299" lon="5.24283">
        <ele>944</ele>
        <time>2020-08-26T20:17:25.29Z</time>
      </trkpt>
      <trkpt lat="44.72978" lon="5.24261">
        <ele>944</ele>
        <time>2020-08-26T20:17:44.13Z</time>
      </trkpt>
      <trkpt lat="44.7297" lon="5.24217">
        <ele>946</ele>
        <time>2020-08-26T20:18:23.17Z</time>
      </trkpt>
      <trkpt lat="44.72971" lon="5.24201">
        <ele>947</ele>
        <time>2020-08-26T20:18:37.68Z</time>
      </trkpt>
      <trkpt lat="44.72993" lon="5.24113">
        <ele>955</ele>
        <time>2020-08-26T20:20:11.32Z</time>
      </trkpt>
      <trkpt lat="44.72984" lon="5.24084">
        <ele>958</ele>
        <time>2020-08-26T20:20:43.43Z</time>
      </trkpt>
      <trkpt lat="44.72982" lon="5.24061">
        <ele>960</ele>
        <time>2020-08-26T20:20:59.59Z</time>
      </trkpt>
      <trkpt lat="44.72973" lon="5.24048">
        <ele>962</ele>
        <time>2020-08-26T20:21:12.42Z</time>
      </trkpt>
      <trkpt lat="44.72902" lon="5.24013">
        <ele>964</ele>
        <time>2020-08-26T20:22:12.60Z</time>
      </trkpt>
      <trkpt lat="44.72891" lon="5.2399">
        <ele>963</ele>
        <time>2020-08-26T20:22:28.28Z</time>
      </trkpt>
      <trkpt lat="44.72879" lon="5.2398">
        <ele>962</ele>
        <time>2020-08-26T20:22:39.45Z</time>
      </trkpt>
      <trkpt lat="44.7287" lon="5.23976">
        <ele>962</ele>
        <time>2020-08-26T20:22:47.02Z</time>
      </trkpt>
      <trkpt lat="44.72847" lon="5.23979">
        <ele>960</ele>
        <time>2020-08-26T20:23:05.42Z</time>
      </trkpt>
      <trkpt lat="44.72815" lon="5.23972">
        <ele>959</ele>
        <time>2020-08-26T20:23:33.72Z</time>
      </trkpt>
      <trkpt lat="44.72754" lon="5.23919">
        <ele>962</ele>
        <time>2020-08-26T20:24:42.41Z</time>
      </trkpt>
      <trkpt lat="44.72731" lon="5.23908">
        <ele>964</ele>
        <time>2020-08-26T20:25:10.44Z</time>
      </trkpt>
      <trkpt lat="44.72715" lon="5.23912">
        <ele>966</ele>
        <time>2020-08-26T20:25:29.29Z</time>
      </trkpt>
      <trkpt lat="44.72679" lon="5.23897">
        <ele>969</ele>
        <time>2020-08-26T20:26:05.86Z</time>
      </trkpt>
      <trkpt lat="44.72659" lon="5.23893">
        <ele>970</ele>
        <time>2020-08-26T20:26:22.51Z</time>
      </trkpt>
      <trkpt lat="44.72649" lon="5.23893">
        <ele>970</ele>
        <time>2020-08-26T20:26:30.65Z</time>
      </trkpt>
      <trkpt lat="44.72585" lon="5.2393">
        <ele>968</ele>
        <time>2020-08-26T20:27:25.85Z</time>
      </trkpt>
      <trkpt lat="44.72565" lon="5.23946">
        <ele>966</ele>
        <time>2020-08-26T20:27:58.03Z</time>
      </trkpt>
      <trkpt lat="44.72557" lon="5.23959">
        <ele>964</ele>
        <time>2020-08-26T20:28:15.90Z</time>
      </trkpt>
      <trkpt lat="44.72529" lon="5.24031">
        <ele>951</ele>
        <time>2020-08-26T20:29:53.24Z</time>
      </trkpt>
      <trkpt lat="44.72518" lon="5.24066">
        <ele>945</ele>
        <time>2020-08-26T20:30:33.64Z</time>
      </trkpt>
      <trkpt lat="44.72502" lon="5.24099">
        <ele>940</ele>
        <time>2020-08-26T20:30:56.65Z</time>
      </trkpt>
      <trkpt lat="44.72498" lon="5.24123">
        <ele>938</ele>
        <time>2020-08-26T20:31:10.58Z</time>
      </trkpt>
      <trkpt lat="44.72495" lon="5.24243">
        <ele>941</ele>
        <time>2020-08-26T20:32:32.30Z</time>
      </trkpt>
      <trkpt lat="44.72506" lon="5.24285">
        <ele>944</ele>
        <time>2020-08-26T20:33:07.59Z</time>
      </trkpt>
      <trkpt lat="44.72489" lon="5.24318">
        <ele>946</ele>
        <time>2020-08-26T20:33:33.81Z</time>
      </trkpt>
      <trkpt lat="44.72495" lon="5.24334">
        <ele>946</ele>
        <time>2020-08-26T20:33:44.12Z</time>
      </trkpt>
      <trkpt lat="44.72489" lon="5.24318">
        <ele>946</ele>
        <time>2020-08-26T20:33:54.43Z</time>
      </trkpt>
      <trkpt lat="44.72506" lon="5.24285">
        <ele>943</ele>
        <time>2020-08-26T20:34:23.08Z</time>
      </trkpt>
      <trkpt lat="44.72495" lon="5.24243">
        <ele>939</ele>
        <time>2020-08-26T20:34:48.79Z</time>
      </trkpt>
      <trkpt lat="44.72498" lon="5.24123">
        <ele>938</ele>
        <time>2020-08-26T20:36:11.06Z</time>
      </trkpt>
      <trkpt lat="44.72502" lon="5.24099">
        <ele>940</ele>
        <time>2020-08-26T20:36:27.77Z</time>
      </trkpt>
      <trkpt lat="44.72518" lon="5.24066">
        <ele>946</ele>
        <time>2020-08-26T20:37:27.80Z</time>
      </trkpt>
      <trkpt lat="44.72529" lon="5.24031">
        <ele>952</ele>
        <time>2020-08-26T20:38:22.61Z</time>
      </trkpt>
      <trkpt lat="44.72557" lon="5.23959">
        <ele>964</ele>
        <time>2020-08-26T20:40:00.32Z</time>
      </trkpt>
      <trkpt lat="44.72565" lon="5.23946">
        <ele>965</ele>
        <time>2020-08-26T20:40:21.63Z</time>
      </trkpt>
      <trkpt lat="44.72585" lon="5.2393">
        <ele>967</ele>
        <time>2020-08-26T20:40:42.36Z</time>
      </trkpt>
      <trkpt lat="44.72649" lon="5.23893">
        <ele>968</ele>
        <time>2020-08-26T20:41:37.57Z</time>
      </trkpt>
      <trkpt lat="44.7268" lon="5.23815">
        <ele>966</ele>
        <time>2020-08-26T20:42:27.99Z</time>
      </trkpt>
      <trkpt lat="44.72675" lon="5.23784">
        <ele>965</ele>
        <time>2020-08-26T20:42:46.03Z</time>
      </trkpt>
      <trkpt lat="44.72679" lon="5.23767">
        <ele>964</ele>
        <time>2020-08-26T20:42:56.63Z</time>
      </trkpt>
      <trkpt lat="44.72733" lon="5.23688">
        <ele>960</ele>
        <time>2020-08-26T20:44:02.22Z</time>
      </trkpt>
      <trkpt lat="44.72762" lon="5.23635">
        <ele>955</ele>
        <time>2020-08-26T20:44:51.69Z</time>
      </trkpt>
      <trkpt lat="44.72818" lon="5.23516">
        <ele>942</ele>
        <time>2020-08-26T20:46:45.46Z</time>
      </trkpt>
      <trkpt lat="44.72822" lon="5.235">
        <ele>940</ele>
        <time>2020-08-26T20:46:59.07Z</time>
      </trkpt>
      <trkpt lat="44.72821" lon="5.23487">
        <ele>939</ele>
        <time>2020-08-26T20:47:09.93Z</time>
      </trkpt>
      <trkpt lat="44.72811" lon="5.23484">
        <ele>937</ele>
        <time>2020-08-26T20:47:23.02Z</time>
      </trkpt>
      <trkpt lat="44.72804" lon="5.23464">
        <ele>934</ele>
        <time>2020-08-26T20:47:44.57Z</time>
      </trkpt>
      <trkpt lat="44.72788" lon="5.23434">
        <ele>930</ele>
        <time>2020-08-26T20:48:17.33Z</time>
      </trkpt>
      <trkpt lat="44.72748" lon="5.23374">
        <ele>921</ele>
        <time>2020-08-26T20:49:22.11Z</time>
      </trkpt>
      <trkpt lat="44.72701" lon="5.23321">
        <ele>914</ele>
        <time>2020-08-26T20:50:21.11Z</time>
      </trkpt>
      <trkpt lat="44.72682" lon="5.23305">
        <ele>911</ele>
        <time>2020-08-26T20:50:42.42Z</time>
      </trkpt>
      <trkpt lat="44.72621" lon="5.23234">
        <ele>903</ele>
        <time>2020-08-26T20:51:54.68Z</time>
      </trkpt>
      <trkpt lat="44.72515" lon="5.23158">
        <ele>892</ele>
        <time>2020-08-26T20:53:44.95Z</time>
      </trkpt>
      <trkpt lat="44.72515" lon="5.23164">
        <ele>891</ele>
        <time>2020-08-26T20:53:48.97Z</time>
      </trkpt>
      <trkpt lat="44.7254" lon="5.2319">
        <ele>887</ele>
        <time>2020-08-26T20:54:25.27Z</time>
      </trkpt>
      <trkpt lat="44.72568" lon="5.2323">
        <ele>881</ele>
        <time>2020-08-26T20:55:12.80Z</time>
      </trkpt>
      <trkpt lat="44.7259" lon="5.23269">
        <ele>876</ele>
        <time>2020-08-26T20:55:54.27Z</time>
      </trkpt>
      <trkpt lat="44.7262" lon="5.23345">
        <ele>867</ele>
        <time>2020-08-26T20:56:59.97Z</time>
      </trkpt>
      <trkpt lat="44.72608" lon="5.23349">
        <ele>866</ele>
        <time>2020-08-26T20:57:13.63Z</time>
      </trkpt>
      <trkpt lat="44.72541" lon="5.23277">
        <ele>856</ele>
        <time>2020-08-26T20:58:38.65Z</time>
      </trkpt>
      <trkpt lat="44.72497" lon="5.2324">
        <ele>850</ele>
        <time>2020-08-26T20:59:31.82Z</time>
      </trkpt>
      <trkpt lat="44.72467" lon="5.23227">
        <ele>846</ele>
        <time>2020-08-26T21:00:03.66Z</time>
      </trkpt>
      <trkpt lat="44.72475" lon="5.23242">
        <ele>845</ele>
        <time>2020-08-26T21:00:17.26Z</time>
      </trkpt>
      <trkpt lat="44.72516" lon="5.23296">
        <ele>838</ele>
        <time>2020-08-26T21:01:13.56Z</time>
      </trkpt>
      <trkpt lat="44.72565" lon="5.2339">
        <ele>829</ele>
        <time>2020-08-26T21:02:32.85Z</time>
      </trkpt>
      <trkpt lat="44.72571" lon="5.23407">
        <ele>828</ele>
        <time>2020-08-26T21:02:45.93Z</time>
      </trkpt>
      <trkpt lat="44.7257" lon="5.23419">
        <ele>827</ele>
        <time>2020-08-26T21:02:53.85Z</time>
      </trkpt>
      <trkpt lat="44.72551" lon="5.23398">
        <ele>824</ele>
        <time>2020-08-26T21:03:15.90Z</time>
      </trkpt>
      <trkpt lat="44.72486" lon="5.23343">
        <ele>817</ele>
        <time>2020-08-26T21:04:26.38Z</time>
      </trkpt>
      <trkpt lat="44.7243" lon="5.23312">
        <ele>810</ele>
        <time>2020-08-26T21:05:36.12Z</time>
      </trkpt>
      <trkpt lat="44.723" lon="5.23329">
        <ele>790</ele>
        <time>2020-08-26T21:08:15.45Z</time>
      </trkpt>
      <trkpt lat="44.72259" lon="5.23326">
        <ele>784</ele>
        <time>2020-08-26T21:09:01.54Z</time>
      </trkpt>
      <trkpt lat="44.7219" lon="5.23332">
        <ele>775</ele>
        <time>2020-08-26T21:10:14.09Z</time>
      </trkpt>
      <trkpt lat="44.72194" lon="5.23338">
        <ele>774</ele>
        <time>2020-08-26T21:10:20.55Z</time>
      </trkpt>
      <trkpt lat="44.72231" lon="5.23353">
        <ele>770</ele>
        <time>2020-08-26T21:10:56.21Z</time>
      </trkpt>
      <trkpt lat="44.72267" lon="5.23374">
        <ele>766</ele>
        <time>2020-08-26T21:11:32.81Z</time>
      </trkpt>
      <trkpt lat="44.72308" lon="5.23404">
        <ele>761</ele>
        <time>2020-08-26T21:12:18.28Z</time>
      </trkpt>
      <trkpt lat="44.72379" lon="5.23448">
        <ele>752</ele>
        <time>2020-08-26T21:13:45.62Z</time>
      </trkpt>
      <trkpt lat="44.72384" lon="5.23456">
        <ele>751</ele>
        <time>2020-08-26T21:13:54.15Z</time>
      </trkpt>
      <trkpt lat="44.72308" lon="5.23465">
        <ele>739</ele>
        <time>2020-08-26T21:15:27.79Z</time>
      </trkpt>
      <trkpt lat="44.72239" lon="5.23461">
        <ele>729</ele>
        <time>2020-08-26T21:16:47.02Z</time>
      </trkpt>
      <trkpt lat="44.72147" lon="5.23486">
        <ele>716</ele>
        <time>2020-08-26T21:18:29.81Z</time>
      </trkpt>
      <trkpt lat="44.72119" lon="5.23488">
        <ele>713</ele>
        <time>2020-08-26T21:18:55.04Z</time>
      </trkpt>
      <trkpt lat="44.72118" lon="5.23493">
        <ele>712</ele>
        <time>2020-08-26T21:18:58.48Z</time>
      </trkpt>
      <trkpt lat="44.72148" lon="5.23519">
        <ele>710</ele>
        <time>2020-08-26T21:19:27.84Z</time>
      </trkpt>
      <trkpt lat="44.72215" lon="5.2354">
        <ele>705</ele>
        <time>2020-08-26T21:20:27.09Z</time>
      </trkpt>
      <trkpt lat="44.72237" lon="5.23551">
        <ele>703</ele>
        <time>2020-08-26T21:20:50.99Z</time>
      </trkpt>
      <trkpt lat="44.72241" lon="5.23554">
        <ele>703</ele>
        <time>2020-08-26T21:20:55.33Z</time>
      </trkpt>
      <trkpt lat="44.72241" lon="5.23559">
        <ele>702</ele>
        <time>2020-08-26T21:20:59.05Z</time>
      </trkpt>
      <trkpt lat="44.72234" lon="5.23569">
        <ele>701</ele>
        <time>2020-08-26T21:21:09.37Z</time>
      </trkpt>
      <trkpt lat="44.72182" lon="5.23607">
        <ele>693</ele>
        <time>2020-08-26T21:22:21.80Z</time>
      </trkpt>
      <trkpt lat="44.72148" lon="5.23648">
        <ele>685</ele>
        <time>2020-08-26T21:23:20.02Z</time>
      </trkpt>
      <trkpt lat="44.72086" lon="5.23737">
        <ele>671</ele>
        <time>2020-08-26T21:25:08.97Z</time>
      </trkpt>
      <trkpt lat="44.72045" lon="5.23775">
        <ele>664</ele>
        <time>2020-08-26T21:26:04.46Z</time>
      </trkpt>
      <trkpt lat="44.72041" lon="5.23772">
        <ele>663</ele>
        <time>2020-08-26T21:26:09.09Z</time>
      </trkpt>
      <trkpt lat="44.72041" lon="5.23769">
        <ele>663</ele>
        <time>2020-08-26T21:26:11.96Z</time>
      </trkpt>
      <trkpt lat="44.72057" lon="5.23742">
        <ele>660</ele>
        <time>2020-08-26T21:26:38.84Z</time>
      </trkpt>
      <trkpt lat="44.72061" lon="5.2372">
        <ele>658</ele>
        <time>2020-08-26T21:26:55.84Z</time>
      </trkpt>
      <trkpt lat="44.7206" lon="5.23702">
        <ele>656</ele>
        <time>2020-08-26T21:27:09.92Z</time>
      </trkpt>
      <trkpt lat="44.72042" lon="5.237">
        <ele>654</ele>
        <time>2020-08-26T21:27:28.16Z</time>
      </trkpt>
      <trkpt lat="44.72027" lon="5.23729">
        <ele>651</ele>
        <time>2020-08-26T21:27:55.75Z</time>
      </trkpt>
      <trkpt lat="44.72016" lon="5.23743">
        <ele>649</ele>
        <time>2020-08-26T21:28:11.04Z</time>
      </trkpt>
      <trkpt lat="44.72003" lon="5.23751">
        <ele>647</ele>
        <time>2020-08-26T21:28:25.71Z</time>
      </trkpt>
      <trkpt lat="44.71967" lon="5.23753">
        <ele>643</ele>
        <time>2020-08-26T21:29:02.43Z</time>
      </trkpt>
      <trkpt lat="44.71948" lon="5.23763">
        <ele>640</ele>
        <time>2020-08-26T21:29:22.66Z</time>
      </trkpt>
      <trkpt lat="44.71911" lon="5.23766">
        <ele>636</ele>
        <time>2020-08-26T21:30:00.02Z</time>
      </trkpt>
      <trkpt lat="44.71889" lon="5.23772">
        <ele>633</ele>
        <time>2020-08-26T21:30:25.68Z</time>
      </trkpt>
      <trkpt lat="44.71826" lon="5.238">
        <ele>624</ele>
        <time>2020-08-26T21:31:44.67Z</time>
      </trkpt>
      <trkpt lat="44.71783" lon="5.23833">
        <ele>616</ele>
        <time>2020-08-26T21:32:48.66Z</time>
      </trkpt>
      <trkpt lat="44.71775" lon="5.23845">
        <ele>614</ele>
        <time>2020-08-26T21:33:04.09Z</time>
      </trkpt>
      <trkpt lat="44.71736" lon="5.23883">
        <ele>606</ele>
        <time>2020-08-26T21:34:06.27Z</time>
      </trkpt>
      <trkpt lat="44.71737" lon="5.23871">
        <ele>604</ele>
        <time>2020-08-26T21:34:17.48Z</time>
      </trkpt>
      <trkpt lat="44.71752" lon="5.23847">
        <ele>601</ele>
        <time>2020-08-26T21:34:43.07Z</time>
      </trkpt>
      <trkpt lat="44.7177" lon="5.23803">
        <ele>596</ele>
        <time>2020-08-26T21:35:23.58Z</time>
      </trkpt>
      <trkpt lat="44.71792" lon="5.23761">
        <ele>591</ele>
        <time>2020-08-26T21:36:07.39Z</time>
      </trkpt>
      <trkpt lat="44.71793" lon="5.23756">
        <ele>591</ele>
        <time>2020-08-26T21:36:11.30Z</time>
      </trkpt>
      <trkpt lat="44.71788" lon="5.23756">
        <ele>590</ele>
        <time>2020-08-26T21:36:16.39Z</time>
      </trkpt>
      <trkpt lat="44.71781" lon="5.23761">
        <ele>589</ele>
        <time>2020-08-26T21:36:26.38Z</time>
      </trkpt>
      <trkpt lat="44.71744" lon="5.23811">
        <ele>581</ele>
        <time>2020-08-26T21:37:43.17Z</time>
      </trkpt>
      <trkpt lat="44.71702" lon="5.23833">
        <ele>570</ele>
        <time>2020-08-26T21:39:11.25Z</time>
      </trkpt>
      <trkpt lat="44.71669" lon="5.23863">
        <ele>558</ele>
        <time>2020-08-26T21:40:36.92Z</time>
      </trkpt>
      <trkpt lat="44.71663" lon="5.2388">
        <ele>554</ele>
        <time>2020-08-26T21:41:04.81Z</time>
      </trkpt>
      <trkpt lat="44.71655" lon="5.23922">
        <ele>545</ele>
        <time>2020-08-26T21:41:59.42Z</time>
      </trkpt>
      <trkpt lat="44.71606" lon="5.24014">
        <ele>527</ele>
        <time>2020-08-26T21:44:01.83Z</time>
      </trkpt>
      <trkpt lat="44.71595" lon="5.24046">
        <ele>524</ele>
        <time>2020-08-26T21:44:25.39Z</time>
      </trkpt>
      <trkpt lat="44.71574" lon="5.24058">
        <ele>522</ele>
        <time>2020-08-26T21:44:44.05Z</time>
      </trkpt>
      <trkpt lat="44.71563" lon="5.24082">
        <ele>520</ele>
        <time>2020-08-26T21:45:00.21Z</time>
      </trkpt>
      <trkpt lat="44.71566" lon="5.24109">
        <ele>520</ele>
        <time>2020-08-26T21:45:15.65Z</time>
      </trkpt>
      <trkpt lat="44.71559" lon="5.24123">
        <ele>520</ele>
        <time>2020-08-26T21:45:26.17Z</time>
      </trkpt>
      <trkpt lat="44.71566" lon="5.24156">
        <ele>521</ele>
        <time>2020-08-26T21:45:48.88Z</time>
      </trkpt>
      <trkpt lat="44.71556" lon="5.24172">
        <ele>522</ele>
        <time>2020-08-26T21:46:03.10Z</time>
      </trkpt>
      <trkpt lat="44.71545" lon="5.24204">
        <ele>523</ele>
        <time>2020-08-26T21:46:28.48Z</time>
      </trkpt>
      <trkpt lat="44.71541" lon="5.24256">
        <ele>526</ele>
        <time>2020-08-26T21:47:05.68Z</time>
      </trkpt>
      <trkpt lat="44.71525" lon="5.24278">
        <ele>527</ele>
        <time>2020-08-26T21:47:26.58Z</time>
      </trkpt>
      <trkpt lat="44.71517" lon="5.243">
        <ele>528</ele>
        <time>2020-08-26T21:47:42.17Z</time>
      </trkpt>
      <trkpt lat="44.71511" lon="5.24337">
        <ele>528</ele>
        <time>2020-08-26T21:48:04.15Z</time>
      </trkpt>
      <trkpt lat="44.71513" lon="5.24373">
        <ele>528</ele>
        <time>2020-08-26T21:48:24.61Z</time>
      </trkpt>
      <trkpt lat="44.71507" lon="5.24403">
        <ele>527</ele>
        <time>2020-08-26T21:48:42.19Z</time>
      </trkpt>
      <trkpt lat="44.71502" lon="5.24415">
        <ele>526</ele>
        <time>2020-08-26T21:48:50.71Z</time>
      </trkpt>
      <trkpt lat="44.71482" lon="5.24438">
        <ele>524</ele>
        <time>2020-08-26T21:49:14.81Z</time>
      </trkpt>
      <trkpt lat="44.71462" lon="5.24469">
        <ele>520</ele>
        <time>2020-08-26T21:49:52.64Z</time>
      </trkpt>
      <trkpt lat="44.71427" lon="5.24497">
        <ele>513</ele>
        <time>2020-08-26T21:50:48.19Z</time>
      </trkpt>
      <trkpt lat="44.71425" lon="5.24525">
        <ele>510</ele>
        <time>2020-08-26T21:51:15.66Z</time>
      </trkpt>
      <trkpt lat="44.71414" lon="5.24535">
        <ele>507</ele>
        <time>2020-08-26T21:51:32.83Z</time>
      </trkpt>
      <trkpt lat="44.71401" lon="5.24536">
        <ele>505</ele>
        <time>2020-08-26T21:51:50.31Z</time>
      </trkpt>
      <trkpt lat="44.71364" lon="5.24507">
        <ele>498</ele>
        <time>2020-08-26T21:52:39.85Z</time>
      </trkpt>
      <trkpt lat="44.71347" lon="5.24505">
        <ele>496</ele>
        <time>2020-08-26T21:52:58.46Z</time>
      </trkpt>
      <trkpt lat="44.71331" lon="5.24512">
        <ele>494</ele>
        <time>2020-08-26T21:53:14.45Z</time>
      </trkpt>
      <trkpt lat="44.71316" lon="5.24513">
        <ele>493</ele>
        <time>2020-08-26T21:53:27.84Z</time>
      </trkpt>
      <trkpt lat="44.71296" lon="5.24505">
        <ele>491</ele>
        <time>2020-08-26T21:53:45.52Z</time>
      </trkpt>
      <trkpt lat="44.71283" lon="5.24495">
        <ele>490</ele>
        <time>2020-08-26T21:53:59.05Z</time>
      </trkpt>
      <trkpt lat="44.71275" lon="5.24482">
        <ele>489</ele>
        <time>2020-08-26T21:54:09.23Z</time>
      </trkpt>
      <trkpt lat="44.71257" lon="5.24481">
        <ele>487</ele>
        <time>2020-08-26T21:54:24.52Z</time>
      </trkpt>
      <trkpt lat="44.71259" lon="5.24512">
        <ele>486</ele>
        <time>2020-08-26T21:54:43.27Z</time>
      </trkpt>
      <trkpt lat="44.71262" lon="5.24522">
        <ele>486</ele>
        <time>2020-08-26T21:54:49.78Z</time>
      </trkpt>
      <trkpt lat="44.71308" lon="5.24631">
        <ele>479</ele>
        <time>2020-08-26T21:56:07.81Z</time>
      </trkpt>
      <trkpt lat="44.7131" lon="5.24646">
        <ele>478</ele>
        <time>2020-08-26T21:56:17.39Z</time>
      </trkpt>
      <trkpt lat="44.71306" lon="5.24656">
        <ele>478</ele>
        <time>2020-08-26T21:56:24.74Z</time>
      </trkpt>
      <trkpt lat="44.71291" lon="5.24664">
        <ele>476</ele>
        <time>2020-08-26T21:56:39.23Z</time>
      </trkpt>
      <trkpt lat="44.71277" lon="5.2466">
        <ele>475</ele>
        <time>2020-08-26T21:56:52.93Z</time>
      </trkpt>
      <trkpt lat="44.71241" lon="5.24628">
        <ele>470</ele>
        <time>2020-08-26T21:57:36.35Z</time>
      </trkpt>
      <trkpt lat="44.71218" lon="5.24615">
        <ele>467</ele>
        <time>2020-08-26T21:58:00.48Z</time>
      </trkpt>
      <trkpt lat="44.71181" lon="5.24616">
        <ele>463</ele>
        <time>2020-08-26T21:58:39.35Z</time>
      </trkpt>
      <trkpt lat="44.71137" lon="5.2463">
        <ele>457</ele>
        <time>2020-08-26T21:59:27.54Z</time>
      </trkpt>
      <trkpt lat="44.71123" lon="5.24642">
        <ele>455</ele>
        <time>2020-08-26T21:59:45.52Z</time>
      </trkpt>
      <trkpt lat="44.71119" lon="5.24653">
        <ele>454</ele>
        <time>2020-08-26T21:59:53.84Z</time>
      </trkpt>
      <trkpt lat="44.71117" lon="5.24672">
        <ele>453</ele>
        <time>2020-08-26T22:00:07.82Z</time>
      </trkpt>
      <trkpt lat="44.71122" lon="5.24782">
        <ele>443</ele>
        <time>2020-08-26T22:01:37.12Z</time>
      </trkpt>
      <trkpt lat="44.71119" lon="5.24806">
        <ele>440</ele>
        <time>2020-08-26T22:01:56.70Z</time>
      </trkpt>
      <trkpt lat="44.71102" lon="5.2485">
        <ele>435</ele>
        <time>2020-08-26T22:02:32.59Z</time>
      </trkpt>
      <trkpt lat="44.71095" lon="5.24879">
        <ele>432</ele>
        <time>2020-08-26T22:02:54.89Z</time>
      </trkpt>
      <trkpt lat="44.71091" lon="5.24916">
        <ele>430</ele>
        <time>2020-08-26T22:03:17.40Z</time>
      </trkpt>
      <trkpt lat="44.71094" lon="5.24984">
        <ele>433</ele>
        <time>2020-08-26T22:04:05.47Z</time>
      </trkpt>
    </trkseg>
  </trk>
</gpx>